sensor_id;sensor_type;location;lat;lon;timestamp;pressure;altitude;pressure_sealevel;temperature;humidity
14689;BME280;7432;48.728;9.154;2023-04-03T00:02:09;97273.69;;;3.65;78.27
14689;BME280;7432;48.728;9.154;2023-04-03T00:04:37;97266.53;;;3.57;78.58
14689;BME280;7432;48.728;9.154;2023-04-03T00:07:03;97272.06;;;3.37;78.42
14689;BME280;7432;48.728;9.154;2023-04-03T00:09:30;97270.50;;;3.48;77.47
14689;BME280;7432;48.728;9.154;2023-04-03T00:11:56;97270.38;;;3.50;77.58
14689;BME280;7432;48.728;9.154;2023-04-03T00:14:23;97270.16;;;3.40;77.72
14689;BME280;7432;48.728;9.154;2023-04-03T00:16:49;97264.16;;;3.41;77.88
14689;BME280;7432;48.728;9.154;2023-04-03T00:19:15;97264.88;;;3.43;77.64
14689;BME280;7432;48.728;9.154;2023-04-03T00:21:43;97279.22;;;3.44;78.93
14689;BME280;7432;48.728;9.154;2023-04-03T00:24:10;97273.41;;;3.42;76.49
14689;BME280;7432;48.728;9.154;2023-04-03T00:26:36;97274.41;;;3.27;78.21
14689;BME280;7432;48.728;9.154;2023-04-03T00:29:03;97265.78;;;3.16;77.50
14689;BME280;7432;48.728;9.154;2023-04-03T00:31:29;97276.41;;;3.22;78.47
14689;BME280;7432;48.728;9.154;2023-04-03T00:33:56;97276.13;;;3.27;78.88
14689;BME280;7432;48.728;9.154;2023-04-03T00:36:22;97274.06;;;3.19;77.78
14689;BME280;7432;48.728;9.154;2023-04-03T00:38:50;97273.41;;;3.16;78.30
14689;BME280;7432;48.728;9.154;2023-04-03T00:41:16;97265.16;;;3.12;77.26
14689;BME280;7432;48.728;9.154;2023-04-03T00:43:43;97273.03;;;3.22;77.44
14689;BME280;7432;48.728;9.154;2023-04-03T00:46:10;97270.59;;;3.20;77.67
14689;BME280;7432;48.728;9.154;2023-04-03T00:48:40;97275.84;;;3.17;77.74
14689;BME280;7432;48.728;9.154;2023-04-03T00:51:10;97270.16;;;3.14;77.96
14689;BME280;7432;48.728;9.154;2023-04-03T00:53:41;97261.38;;;3.32;78.90
14689;BME280;7432;48.728;9.154;2023-04-03T00:56:13;97257.25;;;3.17;77.97
14689;BME280;7432;48.728;9.154;2023-04-03T00:58:44;97271.09;;;3.25;78.11
14689;BME280;7432;48.728;9.154;2023-04-03T01:01:16;97272.72;;;3.14;77.68
14689;BME280;7432;48.728;9.154;2023-04-03T01:03:45;97264.88;;;3.17;77.65
14689;BME280;7432;48.728;9.154;2023-04-03T01:06:12;97270.41;;;3.23;77.86
14689;BME280;7432;48.728;9.154;2023-04-03T01:08:39;97273.38;;;3.30;78.25
14689;BME280;7432;48.728;9.154;2023-04-03T01:11:05;97267.59;;;3.28;77.92
14689;BME280;7432;48.728;9.154;2023-04-03T01:13:33;97261.38;;;3.32;77.71
14689;BME280;7432;48.728;9.154;2023-04-03T01:16:03;97263.28;;;3.28;77.13
14689;BME280;7432;48.728;9.154;2023-04-03T01:18:29;97262.56;;;3.26;77.85
14689;BME280;7432;48.728;9.154;2023-04-03T01:24:15;97261.72;;;3.13;77.47
14689;BME280;7432;48.728;9.154;2023-04-03T01:26:44;97261.03;;;3.24;78.61
14689;BME280;7432;48.728;9.154;2023-04-03T01:29:11;97262.03;;;3.21;77.35
14689;BME280;7432;48.728;9.154;2023-04-03T01:31:47;97269.41;;;3.12;77.89
14689;BME280;7432;48.728;9.154;2023-04-03T01:34:14;97270.44;;;3.09;77.99
14689;BME280;7432;48.728;9.154;2023-04-03T01:36:40;97266.34;;;3.07;77.75
14689;BME280;7432;48.728;9.154;2023-04-03T01:39:07;97269.09;;;3.04;78.02
14689;BME280;7432;48.728;9.154;2023-04-03T01:41:33;97268.06;;;3.06;78.18
14689;BME280;7432;48.728;9.154;2023-04-03T01:44:00;97265.63;;;3.05;77.06
14689;BME280;7432;48.728;9.154;2023-04-03T01:46:26;97270.56;;;2.93;78.65
14689;BME280;7432;48.728;9.154;2023-04-03T01:48:54;97271.47;;;2.92;79.48
14689;BME280;7432;48.728;9.154;2023-04-03T01:51:20;97262.41;;;2.88;77.38
14689;BME280;7432;48.728;9.154;2023-04-03T01:53:47;97268.03;;;2.93;78.92
14689;BME280;7432;48.728;9.154;2023-04-03T01:56:13;97268.03;;;2.93;77.42
14689;BME280;7432;48.728;9.154;2023-04-03T01:58:40;97261.28;;;2.92;78.68
14689;BME280;7432;48.728;9.154;2023-04-03T02:01:06;97262.41;;;2.88;77.58
14689;BME280;7432;48.728;9.154;2023-04-03T02:03:33;97261.28;;;2.92;77.63
14689;BME280;7432;48.728;9.154;2023-04-03T02:06:00;97272.56;;;3.03;78.25
14689;BME280;7432;48.728;9.154;2023-04-03T02:08:27;97263.72;;;3.08;77.20
14689;BME280;7432;48.728;9.154;2023-04-03T02:10:53;97268.91;;;3.07;76.63
14689;BME280;7432;48.728;9.154;2023-04-03T02:13:20;97271.72;;;3.02;75.68
14689;BME280;7432;48.728;9.154;2023-04-03T02:15:46;97265.75;;;3.03;75.68
14689;BME280;7432;48.728;9.154;2023-04-03T02:18:13;97263.19;;;3.03;75.31
14689;BME280;7432;48.728;9.154;2023-04-03T02:20:40;97263.72;;;3.08;75.89
14689;BME280;7432;48.728;9.154;2023-04-03T02:23:07;97267.88;;;3.09;74.02
14689;BME280;7432;48.728;9.154;2023-04-03T02:25:34;97268.56;;;2.98;75.04
14689;BME280;7432;48.728;9.154;2023-04-03T02:28:00;97272.41;;;2.91;74.84
14689;BME280;7432;48.728;9.154;2023-04-03T02:30:26;97272.41;;;2.91;74.32
14689;BME280;7432;48.728;9.154;2023-04-03T02:32:53;97275.28;;;2.99;75.84
14689;BME280;7432;48.728;9.154;2023-04-03T02:35:20;97273.44;;;3.02;74.69
14689;BME280;7432;48.728;9.154;2023-04-03T02:37:46;97275.28;;;2.99;73.51
14689;BME280;7432;48.728;9.154;2023-04-03T02:40:14;97274.16;;;3.04;72.44
14689;BME280;7432;48.728;9.154;2023-04-03T02:42:40;97275.84;;;2.90;73.66
14689;BME280;7432;48.728;9.154;2023-04-03T02:45:07;97265.84;;;2.87;73.51
14689;BME280;7432;48.728;9.154;2023-04-03T02:47:34;97275.47;;;2.96;73.97
14689;BME280;7432;48.728;9.154;2023-04-03T02:50:00;97274.75;;;2.94;72.82
14689;BME280;7432;48.728;9.154;2023-04-03T02:52:27;97274.84;;;2.93;74.24
14689;BME280;7432;48.728;9.154;2023-04-03T02:54:53;97277.19;;;2.96;73.89
14689;BME280;7432;48.728;9.154;2023-04-03T02:57:21;97278.72;;;2.98;73.80
14689;BME280;7432;48.728;9.154;2023-04-03T02:59:47;97271.72;;;3.02;72.80
14689;BME280;7432;48.728;9.154;2023-04-03T03:02:14;97272.81;;;2.98;72.90
14689;BME280;7432;48.728;9.154;2023-04-03T03:04:40;97280.41;;;2.85;73.19
14689;BME280;7432;48.728;9.154;2023-04-03T03:07:07;97274.84;;;2.93;73.53
14689;BME280;7432;48.728;9.154;2023-04-03T03:09:34;97275.31;;;2.85;72.35
14689;BME280;7432;48.728;9.154;2023-04-03T03:12:01;97279.84;;;2.94;73.10
14689;BME280;7432;48.728;9.154;2023-04-03T03:14:28;97269.69;;;2.80;72.39
14689;BME280;7432;48.728;9.154;2023-04-03T03:16:55;97270.34;;;2.84;72.91
14689;BME280;7432;48.728;9.154;2023-04-03T03:19:21;97265.31;;;2.82;73.08
14689;BME280;7432;48.728;9.154;2023-04-03T03:21:47;97272.22;;;2.80;72.75
14689;BME280;7432;48.728;9.154;2023-04-03T03:24:14;97263.59;;;2.83;73.45
14689;BME280;7432;48.728;9.154;2023-04-03T03:26:41;97262.59;;;2.85;72.38
14689;BME280;7432;48.728;9.154;2023-04-03T03:29:07;97265.41;;;2.95;73.96
14689;BME280;7432;48.728;9.154;2023-04-03T03:31:35;97267.53;;;3.01;73.63
14689;BME280;7432;48.728;9.154;2023-04-03T03:34:01;97270.91;;;3.02;73.15
14689;BME280;7432;48.728;9.154;2023-04-03T03:36:28;97264.47;;;2.96;73.38
14689;BME280;7432;48.728;9.154;2023-04-03T03:38:54;97269.25;;;3.00;72.98
14689;BME280;7432;48.728;9.154;2023-04-03T03:41:20;97265.75;;;3.03;73.44
14689;BME280;7432;48.728;9.154;2023-04-03T03:43:47;97263.19;;;3.03;72.65
14689;BME280;7432;48.728;9.154;2023-04-03T03:46:13;97264.09;;;3.02;73.22
14689;BME280;7432;48.728;9.154;2023-04-03T03:48:41;97271.09;;;2.98;72.53
14689;BME280;7432;48.728;9.154;2023-04-03T03:51:07;97261.94;;;2.96;74.30
14689;BME280;7432;48.728;9.154;2023-04-03T03:53:33;97269.47;;;2.97;74.48
14689;BME280;7432;48.728;9.154;2023-04-03T03:56:00;97264.81;;;3.04;73.49
14689;BME280;7432;48.728;9.154;2023-04-03T03:58:26;97271.44;;;3.07;73.32
14689;BME280;7432;48.728;9.154;2023-04-03T04:00:53;97271.25;;;3.10;73.69
14689;BME280;7432;48.728;9.154;2023-04-03T04:03:19;97271.97;;;3.12;73.55
14689;BME280;7432;48.728;9.154;2023-04-03T04:05:47;97260.84;;;3.00;74.27
14689;BME280;7432;48.728;9.154;2023-04-03T04:08:13;97267.88;;;3.09;73.65
14689;BME280;7432;48.728;9.154;2023-04-03T04:10:40;97268.28;;;3.03;73.66
14689;BME280;7432;48.728;9.154;2023-04-03T04:13:06;97272.44;;;3.04;74.13
14689;BME280;7432;48.728;9.154;2023-04-03T04:15:33;97264.06;;;3.16;73.61
14689;BME280;7432;48.728;9.154;2023-04-03T04:17:59;97270.44;;;3.09;73.62
14689;BME280;7432;48.728;9.154;2023-04-03T04:20:25;97274.28;;;3.02;72.81
14689;BME280;7432;48.728;9.154;2023-04-03T04:22:53;97274.28;;;3.02;73.94
14689;BME280;7432;48.728;9.154;2023-04-03T04:25:19;97270.91;;;3.02;72.91
14689;BME280;7432;48.728;9.154;2023-04-03T04:27:46;97270.28;;;2.98;73.46
14689;BME280;7432;48.728;9.154;2023-04-03T04:30:13;97272.09;;;2.96;73.21
14689;BME280;7432;48.728;9.154;2023-04-03T04:32:39;97269.84;;;2.91;72.95
14689;BME280;7432;48.728;9.154;2023-04-03T04:35:06;97272.31;;;2.79;72.76
14689;BME280;7432;48.728;9.154;2023-04-03T04:37:32;97269.59;;;2.82;71.64
14689;BME280;7432;48.728;9.154;2023-04-03T04:40:00;97274.41;;;2.86;71.87
14689;BME280;7432;48.728;9.154;2023-04-03T04:42:27;97272.94;;;2.82;72.49
14689;BME280;7432;48.728;9.154;2023-04-03T04:44:53;97256.63;;;2.72;72.14
14689;BME280;7432;48.728;9.154;2023-04-03T04:47:20;97274.47;;;2.85;71.34
14689;BME280;7432;48.728;9.154;2023-04-03T04:49:46;97275.66;;;2.79;71.36
14689;BME280;7432;48.728;9.154;2023-04-03T04:52:13;97274.59;;;2.83;71.07
14689;BME280;7432;48.728;9.154;2023-04-03T04:54:39;97275.66;;;2.93;70.82
14689;BME280;7432;48.728;9.154;2023-04-03T04:57:07;97274.47;;;2.85;71.04
14689;BME280;7432;48.728;9.154;2023-04-03T04:59:34;97281.59;;;2.80;70.27
14689;BME280;7432;48.728;9.154;2023-04-03T05:02:00;97276.88;;;2.74;70.56
14689;BME280;7432;48.728;9.154;2023-04-03T05:04:26;97277.03;;;2.71;69.77
14689;BME280;7432;48.728;9.154;2023-04-03T05:06:53;97276.78;;;2.75;68.06
14689;BME280;7432;48.728;9.154;2023-04-03T05:09:19;97285.22;;;2.76;67.76
14689;BME280;7432;48.728;9.154;2023-04-03T05:11:46;97298.56;;;2.79;68.78
14689;BME280;7432;48.728;9.154;2023-04-03T05:14:13;97288.38;;;2.79;68.20
14689;BME280;7432;48.728;9.154;2023-04-03T05:16:40;97292.13;;;2.74;69.38
14689;BME280;7432;48.728;9.154;2023-04-03T05:19:06;97289.13;;;2.81;68.02
14689;BME280;7432;48.728;9.154;2023-04-03T05:21:33;97295.28;;;2.91;68.20
14689;BME280;7432;48.728;9.154;2023-04-03T05:24:00;97296.72;;;2.95;68.30
14689;BME280;7432;48.728;9.154;2023-04-03T05:26:28;97287.19;;;2.99;68.00
14689;BME280;7432;48.728;9.154;2023-04-03T05:28:54;97295.47;;;2.88;67.35
14689;BME280;7432;48.728;9.154;2023-04-03T05:31:22;97303.34;;;2.98;68.05
14689;BME280;7432;48.728;9.154;2023-04-03T05:33:49;97303.44;;;2.96;66.89
14689;BME280;7432;48.728;9.154;2023-04-03T05:36:15;97303.69;;;3.06;67.82
14689;BME280;7432;48.728;9.154;2023-04-03T05:38:42;97309.03;;;3.16;66.56
14689;BME280;7432;48.728;9.154;2023-04-03T05:41:08;97304.97;;;3.40;65.74
14689;BME280;7432;48.728;9.154;2023-04-03T05:43:35;97304.28;;;3.50;65.98
14689;BME280;7432;48.728;9.154;2023-04-03T05:46:03;97302.28;;;3.55;65.75
14689;BME280;7432;48.728;9.154;2023-04-03T05:48:30;97315.78;;;3.70;65.24
14689;BME280;7432;48.728;9.154;2023-04-03T05:50:57;97305.00;;;3.79;65.56
14689;BME280;7432;48.728;9.154;2023-04-03T05:53:27;97304.06;;;3.80;65.68
14689;BME280;7432;48.728;9.154;2023-04-03T05:55:53;97309.16;;;3.80;66.62
14689;BME280;7432;48.728;9.154;2023-04-03T05:58:20;97315.63;;;3.59;66.36
14689;BME280;7432;48.728;9.154;2023-04-03T06:00:46;97306.91;;;3.63;67.28
14689;BME280;7432;48.728;9.154;2023-04-03T06:03:13;97316.34;;;3.88;67.19
14689;BME280;7432;48.728;9.154;2023-04-03T06:05:41;97329.28;;;3.97;66.39
14689;BME280;7432;48.728;9.154;2023-04-03T06:08:08;97317.19;;;4.01;65.94
14689;BME280;7432;48.728;9.154;2023-04-03T06:10:35;97321.31;;;3.89;66.33
14689;BME280;7432;48.728;9.154;2023-04-03T06:13:02;97317.88;;;4.03;66.19
14689;BME280;7432;48.728;9.154;2023-04-03T06:15:28;97326.88;;;4.08;66.08
14689;BME280;7432;48.728;9.154;2023-04-03T06:17:54;97322.97;;;4.15;67.00
14689;BME280;7432;48.728;9.154;2023-04-03T06:20:21;97325.13;;;4.22;65.48
14689;BME280;7432;48.728;9.154;2023-04-03T06:22:49;97326.88;;;4.21;66.63
14689;BME280;7432;48.728;9.154;2023-04-03T06:25:16;97337.75;;;4.10;65.96
14689;BME280;7432;48.728;9.154;2023-04-03T06:27:43;97323.69;;;4.05;65.50
14689;BME280;7432;48.728;9.154;2023-04-03T06:30:11;97309.59;;;3.99;65.48
14689;BME280;7432;48.728;9.154;2023-04-03T06:32:37;97334.63;;;4.07;65.83
14689;BME280;7432;48.728;9.154;2023-04-03T06:35:05;97346.16;;;4.12;65.74
14689;BME280;7432;48.728;9.154;2023-04-03T06:37:31;97332.69;;;4.23;64.57
14689;BME280;7432;48.728;9.154;2023-04-03T06:39:59;97337.59;;;4.39;65.02
14689;BME280;7432;48.728;9.154;2023-04-03T06:42:26;97334.94;;;4.40;63.80
14689;BME280;7432;48.728;9.154;2023-04-03T06:44:52;97334.03;;;4.41;64.18
14689;BME280;7432;48.728;9.154;2023-04-03T06:47:19;97339.44;;;4.37;63.64
14689;BME280;7432;48.728;9.154;2023-04-03T06:49:45;97344.34;;;4.40;65.17
14689;BME280;7432;48.728;9.154;2023-04-03T06:52:11;97338.63;;;4.49;65.70
14689;BME280;7432;48.728;9.154;2023-04-03T06:54:38;97337.19;;;4.83;64.43
14689;BME280;7432;48.728;9.154;2023-04-03T06:57:07;97338.94;;;4.32;64.45
14689;BME280;7432;48.728;9.154;2023-04-03T06:59:33;97344.44;;;4.26;65.96
14689;BME280;7432;48.728;9.154;2023-04-03T07:02:00;97346.03;;;4.14;66.79
14689;BME280;7432;48.728;9.154;2023-04-03T07:04:26;97352.13;;;3.99;66.22
14689;BME280;7432;48.728;9.154;2023-04-03T07:06:53;97351.19;;;3.87;66.95
14689;BME280;7432;48.728;9.154;2023-04-03T07:09:19;97343.94;;;3.94;67.19
14689;BME280;7432;48.728;9.154;2023-04-03T07:11:46;97346.03;;;4.01;67.25
14689;BME280;7432;48.728;9.154;2023-04-03T07:14:14;97354.69;;;4.11;66.85
14689;BME280;7432;48.728;9.154;2023-04-03T07:16:40;97357.31;;;4.10;66.80
14689;BME280;7432;48.728;9.154;2023-04-03T07:19:07;97362.84;;;4.16;67.10
14689;BME280;7432;48.728;9.154;2023-04-03T07:21:33;97364.81;;;4.26;65.96
14689;BME280;7432;48.728;9.154;2023-04-03T07:24:00;97355.09;;;4.18;66.78
14689;BME280;7432;48.728;9.154;2023-04-03T07:26:27;97359.66;;;4.40;66.17
14689;BME280;7432;48.728;9.154;2023-04-03T07:28:53;97355.84;;;4.33;64.98
14689;BME280;7432;48.728;9.154;2023-04-03T07:31:21;97372.09;;;4.69;65.13
14689;BME280;7432;48.728;9.154;2023-04-03T07:33:48;97369.31;;;4.60;65.09
14689;BME280;7432;48.728;9.154;2023-04-03T07:36:17;97361.56;;;4.74;65.54
14689;BME280;7432;48.728;9.154;2023-04-03T07:38:44;97368.81;;;4.93;63.54
14689;BME280;7432;48.728;9.154;2023-04-03T07:41:12;97368.72;;;4.82;64.75
14689;BME280;7432;48.728;9.154;2023-04-03T07:43:40;97367.88;;;4.94;64.35
14689;BME280;7432;48.728;9.154;2023-04-03T07:46:07;97370.25;;;4.97;64.39
14689;BME280;7432;48.728;9.154;2023-04-03T07:48:35;97373.81;;;4.94;64.12
14689;BME280;7432;48.728;9.154;2023-04-03T07:51:02;97377.41;;;4.92;64.76
14689;BME280;7432;48.728;9.154;2023-04-03T07:53:29;97377.59;;;4.89;64.44
14689;BME280;7432;48.728;9.154;2023-04-03T07:55:56;97375.81;;;5.14;64.18
14689;BME280;7432;48.728;9.154;2023-04-03T07:58:22;97379.69;;;5.32;63.53
14689;BME280;7432;48.728;9.154;2023-04-03T08:00:49;97379.56;;;5.58;62.96
14689;BME280;7432;48.728;9.154;2023-04-03T08:03:16;97388.75;;;5.60;63.24
14689;BME280;7432;48.728;9.154;2023-04-03T08:05:45;97386.63;;;6.14;59.78
14689;BME280;7432;48.728;9.154;2023-04-03T08:08:13;97378.38;;;6.11;60.88
14689;BME280;7432;48.728;9.154;2023-04-03T08:10:40;97383.41;;;6.23;60.41
14689;BME280;7432;48.728;9.154;2023-04-03T08:13:08;97385.22;;;6.10;59.58
14689;BME280;7432;48.728;9.154;2023-04-03T08:15:35;97394.50;;;5.87;61.71
14689;BME280;7432;48.728;9.154;2023-04-03T08:18:02;97386.06;;;5.74;60.68
14689;BME280;7432;48.728;9.154;2023-04-03T08:20:29;97384.91;;;5.91;61.60
14689;BME280;7432;48.728;9.154;2023-04-03T08:22:56;97393.78;;;5.98;60.47
14689;BME280;7432;48.728;9.154;2023-04-03T08:25:23;97387.38;;;6.27;60.84
14689;BME280;7432;48.728;9.154;2023-04-03T08:27:49;97387.53;;;6.48;59.79
14689;BME280;7432;48.728;9.154;2023-04-03T08:30:16;97390.50;;;6.66;58.76
14689;BME280;7432;48.728;9.154;2023-04-03T08:32:42;97388.88;;;6.87;60.03
14689;BME280;7432;48.728;9.154;2023-04-03T08:35:09;97385.38;;;6.66;58.77
14689;BME280;7432;48.728;9.154;2023-04-03T08:37:36;97395.16;;;6.61;59.42
14689;BME280;7432;48.728;9.154;2023-04-03T08:40:06;97395.78;;;6.40;59.33
14689;BME280;7432;48.728;9.154;2023-04-03T08:42:41;97401.50;;;6.20;60.08
14689;BME280;7432;48.728;9.154;2023-04-03T08:45:14;97396.56;;;5.95;60.54
14689;BME280;7432;48.728;9.154;2023-04-03T08:47:45;97395.31;;;6.01;61.79
14689;BME280;7432;48.728;9.154;2023-04-03T08:50:17;97397.66;;;6.38;61.23
14689;BME280;7432;48.728;9.154;2023-04-03T08:52:46;97387.34;;;6.73;59.97
14689;BME280;7432;48.728;9.154;2023-04-03T08:55:22;97391.56;;;7.18;57.28
14689;BME280;7432;48.728;9.154;2023-04-03T08:57:51;97385.88;;;7.26;58.13
14689;BME280;7432;48.728;9.154;2023-04-03T09:00:23;97404.91;;;7.78;56.25
14689;BME280;7432;48.728;9.154;2023-04-03T09:02:51;97399.59;;;8.01;54.68
14689;BME280;7432;48.728;9.154;2023-04-03T09:05:19;97400.09;;;8.89;54.57
14689;BME280;7432;48.728;9.154;2023-04-03T09:07:48;97403.09;;;9.24;51.64
14689;BME280;7432;48.728;9.154;2023-04-03T09:10:22;97404.56;;;9.57;50.88
14689;BME280;7432;48.728;9.154;2023-04-03T09:12:54;97404.28;;;10.19;50.54
14689;BME280;7432;48.728;9.154;2023-04-03T09:15:23;97402.81;;;10.45;49.73
14689;BME280;7432;48.728;9.154;2023-04-03T09:17:59;97407.81;;;11.12;48.70
14689;BME280;7432;48.728;9.154;2023-04-03T09:20:35;97398.09;;;11.06;46.89
14689;BME280;7432;48.728;9.154;2023-04-03T09:23:16;97408.13;;;9.66;49.26
14689;BME280;7432;48.728;9.154;2023-04-03T09:25:46;97400.25;;;8.87;52.10
14689;BME280;7432;48.728;9.154;2023-04-03T09:28:12;97401.13;;;8.77;51.46
14689;BME280;7432;48.728;9.154;2023-04-03T09:30:38;97404.66;;;8.85;50.24
14689;BME280;7432;48.728;9.154;2023-04-03T09:33:05;97413.38;;;7.89;51.37
14689;BME280;7432;48.728;9.154;2023-04-03T09:35:33;97404.88;;;7.89;52.64
14689;BME280;7432;48.728;9.154;2023-04-03T09:38:13;97407.75;;;7.52;53.16
14689;BME280;7432;48.728;9.154;2023-04-03T09:40:42;97400.53;;;7.24;53.27
14689;BME280;7432;48.728;9.154;2023-04-03T09:43:24;97397.84;;;6.92;55.19
14689;BME280;7432;48.728;9.154;2023-04-03T09:45:53;97404.41;;;7.07;55.77
14689;BME280;7432;48.728;9.154;2023-04-03T09:48:21;97408.22;;;7.35;53.50
14689;BME280;7432;48.728;9.154;2023-04-03T09:50:59;97410.63;;;7.70;52.92
14689;BME280;7432;48.728;9.154;2023-04-03T09:53:32;97409.56;;;7.72;52.32
14689;BME280;7432;48.728;9.154;2023-04-03T09:56:00;97400.88;;;7.53;52.63
14689;BME280;7432;48.728;9.154;2023-04-03T09:58:31;97397.16;;;7.46;53.88
14689;BME280;7432;48.728;9.154;2023-04-03T10:01:00;97386.53;;;6.73;54.47
14689;BME280;7432;48.728;9.154;2023-04-03T10:03:29;97398.56;;;6.37;57.32
14689;BME280;7432;48.728;9.154;2023-04-03T10:05:58;97404.28;;;6.41;58.35
14689;BME280;7432;48.728;9.154;2023-04-03T10:08:28;97408.97;;;6.58;58.36
14689;BME280;7432;48.728;9.154;2023-04-03T10:11:07;97387.81;;;6.67;57.43
14689;BME280;7432;48.728;9.154;2023-04-03T10:13:49;97393.06;;;6.66;57.86
14689;BME280;7432;48.728;9.154;2023-04-03T10:16:18;97387.31;;;6.51;59.33
14689;BME280;7432;48.728;9.154;2023-04-03T10:18:48;97392.75;;;6.35;57.30
14689;BME280;7432;48.728;9.154;2023-04-03T10:21:25;97384.78;;;6.16;58.93
14689;BME280;7432;48.728;9.154;2023-04-03T10:24:01;97387.06;;;6.08;57.40
14689;BME280;7432;48.728;9.154;2023-04-03T10:26:33;97384.56;;;6.19;57.41
14689;BME280;7432;48.728;9.154;2023-04-03T10:29:11;97394.84;;;6.07;57.59
14689;BME280;7432;48.728;9.154;2023-04-03T10:31:45;97395.78;;;5.69;57.74
14689;BME280;7432;48.728;9.154;2023-04-03T10:34:20;97391.97;;;5.87;57.08
14689;BME280;7432;48.728;9.154;2023-04-03T10:36:57;97376.03;;;6.08;56.84
14689;BME280;7432;48.728;9.154;2023-04-03T10:39:32;97385.38;;;6.20;55.14
14689;BME280;7432;48.728;9.154;2023-04-03T10:42:04;97380.00;;;5.88;55.53
14689;BME280;7432;48.728;9.154;2023-04-03T10:44:46;97391.53;;;5.93;57.45
14689;BME280;7432;48.728;9.154;2023-04-03T10:47:20;97385.16;;;5.75;56.73
14689;BME280;7432;48.728;9.154;2023-04-03T10:49:54;97391.38;;;5.71;57.63
14689;BME280;7432;48.728;9.154;2023-04-03T10:52:28;97396.28;;;5.74;57.50
14689;BME280;7432;48.728;9.154;2023-04-03T10:55:04;97394.00;;;5.59;57.51
14689;BME280;7432;48.728;9.154;2023-04-03T10:57:33;97390.34;;;5.50;58.20
14689;BME280;7432;48.728;9.154;2023-04-03T11:00:04;97390.81;;;5.55;59.85
14689;BME280;7432;48.728;9.154;2023-04-03T11:02:37;97391.66;;;5.56;59.40
14689;BME280;7432;48.728;9.154;2023-04-03T11:05:08;97385.41;;;5.60;61.54
14689;BME280;7432;48.728;9.154;2023-04-03T11:07:45;97385.94;;;5.88;59.42
14689;BME280;7432;48.728;9.154;2023-04-03T11:10:17;97392.91;;;5.86;59.38
14689;BME280;7432;48.728;9.154;2023-04-03T11:12:49;97388.75;;;5.73;58.11
14689;BME280;7432;48.728;9.154;2023-04-03T11:15:20;97382.16;;;5.81;59.11
14689;BME280;7432;48.728;9.154;2023-04-03T11:17:53;97384.94;;;5.78;59.69
14689;BME280;7432;48.728;9.154;2023-04-03T11:20:24;97383.28;;;5.90;58.45
14689;BME280;7432;48.728;9.154;2023-04-03T11:22:57;97384.41;;;6.10;57.71
14689;BME280;7432;48.728;9.154;2023-04-03T11:25:25;97379.25;;;6.33;56.54
14689;BME280;7432;48.728;9.154;2023-04-03T11:27:55;97384.16;;;6.36;56.20
14689;BME280;7432;48.728;9.154;2023-04-03T11:30:27;97377.94;;;6.17;55.17
14689;BME280;7432;48.728;9.154;2023-04-03T11:33:05;97383.09;;;6.04;55.47
14689;BME280;7432;48.728;9.154;2023-04-03T11:35:37;97384.47;;;5.61;56.59
14689;BME280;7432;48.728;9.154;2023-04-03T11:38:16;97373.56;;;5.59;55.78
14689;BME280;7432;48.728;9.154;2023-04-03T11:40:44;97374.44;;;5.70;55.71
14689;BME280;7432;48.728;9.154;2023-04-03T11:43:21;97376.19;;;5.70;55.14
14689;BME280;7432;48.728;9.154;2023-04-03T11:45:55;97379.22;;;5.75;53.34
14689;BME280;7432;48.728;9.154;2023-04-03T11:48:51;97370.31;;;5.80;52.05
14689;BME280;7432;48.728;9.154;2023-04-03T11:51:41;97373.63;;;5.93;53.31
14689;BME280;7432;48.728;9.154;2023-04-03T11:54:42;97376.19;;;5.93;52.19
14689;BME280;7432;48.728;9.154;2023-04-03T11:57:44;97358.91;;;6.32;51.11
14689;BME280;7432;48.728;9.154;2023-04-03T12:09:32;97355.56;;;6.53;53.65
14689;BME280;7432;48.728;9.154;2023-04-03T12:12:01;97344.19;;;6.46;54.20
14689;BME280;7432;48.728;9.154;2023-04-03T12:14:47;97354.91;;;6.17;54.66
14689;BME280;7432;48.728;9.154;2023-04-03T12:17:20;97348.44;;;6.35;54.93
14689;BME280;7432;48.728;9.154;2023-04-03T12:19:50;97357.81;;;6.23;54.07
14689;BME280;7432;48.728;9.154;2023-04-03T12:22:17;97350.81;;;6.03;55.30
14689;BME280;7432;48.728;9.154;2023-04-03T12:24:47;97353.56;;;6.00;55.98
14689;BME280;7432;48.728;9.154;2023-04-03T12:27:36;97333.81;;;5.78;55.42
14689;BME280;7432;48.728;9.154;2023-04-03T12:30:13;97344.22;;;5.88;55.67
14689;BME280;7432;48.728;9.154;2023-04-03T12:32:48;97344.44;;;5.85;55.57
14689;BME280;7432;48.728;9.154;2023-04-03T12:35:24;97351.31;;;6.19;53.95
14689;BME280;7432;48.728;9.154;2023-04-03T12:40:43;97339.06;;;6.46;54.29
14689;BME280;7432;48.728;9.154;2023-04-03T12:43:25;97346.16;;;6.54;53.73
14689;BME280;7432;48.728;9.154;2023-04-03T12:45:59;97338.25;;;6.57;53.25
14689;BME280;7432;48.728;9.154;2023-04-03T12:48:30;97335.94;;;6.76;53.29
14689;BME280;7432;48.728;9.154;2023-04-03T12:50:59;97341.97;;;6.64;54.45
14689;BME280;7432;48.728;9.154;2023-04-03T12:53:27;97348.34;;;6.02;53.41
14689;BME280;7432;48.728;9.154;2023-04-03T12:55:56;97343.34;;;6.00;53.57
14689;BME280;7432;48.728;9.154;2023-04-03T12:58:25;97342.31;;;6.03;52.45
14689;BME280;7432;48.728;9.154;2023-04-03T13:00:59;97330.75;;;6.32;52.65
14689;BME280;7432;48.728;9.154;2023-04-03T13:03:27;97328.03;;;6.79;51.16
14689;BME280;7432;48.728;9.154;2023-04-03T13:05:54;97320.34;;;7.12;48.10
14689;BME280;7432;48.728;9.154;2023-04-03T13:08:24;97334.19;;;7.21;49.25
14689;BME280;7432;48.728;9.154;2023-04-03T13:10:54;97333.59;;;7.18;50.52
14689;BME280;7432;48.728;9.154;2023-04-03T13:13:21;97333.59;;;7.29;47.84
14689;BME280;7432;48.728;9.154;2023-04-03T13:15:49;97331.69;;;7.42;48.56
14689;BME280;7432;48.728;9.154;2023-04-03T13:18:28;97325.78;;;7.30;48.71
14689;BME280;7432;48.728;9.154;2023-04-03T13:21:00;97332.13;;;7.58;48.76
14689;BME280;7432;48.728;9.154;2023-04-03T13:23:29;97319.22;;;7.59;50.91
14689;BME280;7432;48.728;9.154;2023-04-03T13:25:56;97325.28;;;7.47;50.25
14689;BME280;7432;48.728;9.154;2023-04-03T13:28:27;97318.50;;;7.57;50.31
14689;BME280;7432;48.728;9.154;2023-04-03T13:30:57;97318.81;;;7.32;48.25
14689;BME280;7432;48.728;9.154;2023-04-03T13:33:29;97310.88;;;7.24;48.93
14689;BME280;7432;48.728;9.154;2023-04-03T13:36:00;97315.06;;;7.36;49.68
14689;BME280;7432;48.728;9.154;2023-04-03T13:38:30;97318.81;;;7.32;48.89
14689;BME280;7432;48.728;9.154;2023-04-03T13:41:00;97318.59;;;7.13;48.94
14689;BME280;7432;48.728;9.154;2023-04-03T13:43:31;97316.50;;;7.18;48.82
14689;BME280;7432;48.728;9.154;2023-04-03T13:46:02;97317.63;;;7.36;49.85
14689;BME280;7432;48.728;9.154;2023-04-03T13:48:39;97319.16;;;7.28;47.12